Time;durP1;ratioP1;P1;durP2;ratioP2;P2;SDS_P1;SDS_P2;PMS_P1;PMS_P2;Temp;Humidity;BMP_temperature;BMP_pressure;BME280_temperature;BME280_humidity;BME280_pressure;Samples;Min_cycle;Max_cycle;Signal;HPM_P1;HPM_P2
2023/05/20 00:00:28;;;;;;;15.05;5.88;;;9.80;99.90;;;9.19;100.00;101898.41;4122161;28;20034;-70
2023/05/20 00:02:29;;;;;;;10.20;6.00;;;9.80;99.90;;;9.16;100.00;101896.03;4122187;28;20512;-70
2023/05/20 00:04:30;;;;;;;10.20;5.65;;;9.80;99.90;;;9.16;100.00;101898.66;4136914;28;20058;-70
2023/05/20 00:06:31;;;;;;;9.55;5.78;;;9.70;99.90;;;9.09;100.00;101898.28;4120534;28;20030;-70
2023/05/20 00:08:32;;;;;;;9.32;5.68;;;9.70;99.90;;;9.08;100.00;101896.59;4121937;28;20099;-70
2023/05/20 00:10:32;;;;;;;8.00;5.85;;;9.70;99.90;;;9.06;100.00;101888.00;4122013;28;20027;-70
2023/05/20 00:12:36;;;;;;;10.88;5.95;;;9.70;99.90;;;9.01;100.00;101887.53;4121902;28;20034;-70
2023/05/20 00:14:37;;;;;;;10.40;5.72;;;9.60;99.90;;;8.98;100.00;101874.59;4136445;28;20033;-70
2023/05/20 00:16:38;;;;;;;14.60;6.22;;;9.60;99.90;;;8.95;100.00;101884.50;4121494;28;20042;-70
2023/05/20 00:18:38;;;;;;;11.73;6.45;;;9.60;99.90;;;8.93;100.00;101883.81;4136934;28;20037;-70
2023/05/20 00:20:39;;;;;;;13.02;6.28;;;9.60;99.90;;;8.90;100.00;101879.59;4121972;28;20026;-70
2023/05/20 00:22:40;;;;;;;8.15;5.53;;;9.60;99.90;;;8.88;100.00;101886.78;4121562;28;20038;-70
2023/05/20 00:24:41;;;;;;;9.85;5.30;;;9.50;99.90;;;8.84;100.00;101880.09;4121627;28;20450;-70
2023/05/20 00:26:42;;;;;;;9.93;5.97;;;9.50;99.90;;;8.83;100.00;101878.41;4136658;28;20030;-70
2023/05/20 00:28:43;;;;;;;12.88;6.55;;;9.50;99.90;;;8.81;100.00;101885.56;4121665;28;20058;-70
2023/05/20 00:30:44;;;;;;;10.52;5.97;;;9.40;99.90;;;8.75;100.00;101878.16;4136736;28;20044;-70
2023/05/20 00:32:45;;;;;;;14.10;6.22;;;9.40;99.90;;;8.72;100.00;101876.56;4136566;28;20457;-70
2023/05/20 00:34:58;;;;;;;11.23;6.45;;;9.40;99.90;;;8.77;100.00;101877.06;4121671;28;20027;-70
2023/05/20 00:36:59;;;;;;;12.20;6.50;;;9.40;99.90;;;8.71;100.00;101872.28;4121563;28;20113;-71
2023/05/20 00:38:59;;;;;;;13.68;7.13;;;9.40;99.90;;;8.71;100.00;101867.03;4136077;28;20089;-72
2023/05/20 00:41:00;;;;;;;10.63;6.07;;;9.30;99.90;;;8.69;100.00;101868.91;4121534;28;20082;-71
2023/05/20 00:43:01;;;;;;;14.70;7.22;;;9.30;99.90;;;8.67;100.00;101862.94;4121484;28;20033;-70
2023/05/20 00:45:02;;;;;;;16.20;7.32;;;9.30;99.90;;;8.63;100.00;101858.84;4121524;28;20026;-70
2023/05/20 00:47:03;;;;;;;9.50;6.78;;;9.30;99.90;;;8.65;100.00;101867.47;4136025;28;20077;-70
2023/05/20 00:49:05;;;;;;;12.07;7.38;;;9.30;99.90;;;8.63;100.00;101865.94;4120321;28;20027;-70
2023/05/20 00:51:06;;;;;;;12.63;7.88;;;9.30;99.90;;;8.64;100.00;101859.69;4120263;28;20086;-70
2023/05/20 00:53:08;;;;;;;15.82;7.20;;;9.30;99.90;;;8.61;100.00;101863.41;4121071;28;20027;-71
2023/05/20 00:55:09;;;;;;;10.50;7.03;;;9.20;99.90;;;8.57;100.00;101856.69;4120030;28;20078;-70
2023/05/20 00:57:11;;;;;;;11.00;6.75;;;9.30;99.90;;;8.54;100.00;101856.09;4120164;28;20368;-70
2023/05/20 00:59:12;;;;;;;10.13;7.00;;;9.20;99.90;;;8.51;100.00;101857.16;4120095;28;20085;-70
2023/05/20 01:01:13;;;;;;;14.45;7.00;;;9.20;99.90;;;8.50;100.00;101859.91;4119888;28;20030;-70
2023/05/20 01:03:15;;;;;;;11.23;7.47;;;9.20;99.90;;;8.46;100.00;101858.44;4103635;28;20027;-70
2023/05/20 01:05:16;;;;;;;13.25;6.88;;;9.10;99.90;;;8.44;100.00;101863.84;4112879;28;20033;-70
2023/05/20 01:07:18;;;;;;;11.80;6.85;;;9.10;99.90;;;8.39;100.00;101850.22;4119607;28;20054;-70
2023/05/20 01:09:19;;;;;;;14.82;7.18;;;9.10;99.90;;;8.37;100.00;101851.25;4119033;28;20490;-70
2023/05/20 01:11:42;;;;;;;12.35;6.53;;;9.00;99.90;;;8.33;100.00;101840.97;4119622;28;20031;-70
2023/05/20 01:13:49;;;;;;;12.95;7.40;;;9.00;99.90;;;8.32;100.00;101849.81;4120364;28;20031;-70
2023/05/20 01:15:54;;;;;;;14.73;7.30;;;9.00;99.90;;;8.32;100.00;101848.97;4119688;28;20027;-70
2023/05/20 01:18:00;;;;;;;15.18;7.65;;;9.00;99.90;;;8.30;100.00;101846.44;4135630;28;20023;-70
2023/05/20 01:20:03;;;;;;;12.30;7.90;;;8.90;99.90;;;8.28;100.00;101837.00;4135572;28;20030;-70
2023/05/20 01:22:07;;;;;;;15.45;7.05;;;8.90;99.90;;;8.29;100.00;101847.41;4120785;28;20034;-70
2023/05/20 01:24:07;;;;;;;11.82;7.43;;;8.90;99.90;;;8.27;100.00;101848.47;4120659;28;20027;-70
2023/05/20 01:26:16;;;;;;;14.07;7.57;;;8.90;99.90;;;8.23;100.00;101833.84;4120686;28;20033;-70
2023/05/20 01:28:16;;;;;;;11.60;7.60;;;8.90;99.90;;;8.23;100.00;101845.22;4135164;28;20069;-70
2023/05/20 01:30:18;;;;;;;14.82;8.15;;;8.90;99.90;;;8.21;100.00;101838.41;4120733;28;20450;-70
2023/05/20 01:32:51;;;;;;;16.02;7.93;;;8.90;99.90;;;8.20;100.00;101839.34;4135312;28;20034;-70
2023/05/20 01:34:53;;;;;;;16.88;8.55;;;8.80;99.90;;;8.15;100.00;101837.03;4120205;28;20059;-70
2023/05/20 01:36:54;;;;;;;13.25;8.60;;;8.80;99.90;;;8.16;100.00;101830.84;4135237;28;20038;-70
2023/05/20 01:38:56;;;;;;;12.85;8.10;;;8.80;99.90;;;8.15;100.00;101839.66;4119040;28;20039;-70
2023/05/20 01:40:58;;;;;;;14.27;8.38;;;8.80;99.90;;;8.10;100.00;101836.56;4119543;28;20117;-70
2023/05/20 01:43:01;;;;;;;19.77;8.13;;;8.80;99.90;;;8.11;100.00;101837.41;4135238;28;20065;-70
2023/05/20 01:45:03;;;;;;;17.63;9.27;;;8.80;99.90;;;8.09;100.00;101839.31;4135380;28;20034;-70
2023/05/20 01:47:04;;;;;;;16.25;8.38;;;8.80;99.90;;;8.08;100.00;101835.00;4120187;28;20530;-70
2023/05/20 01:49:05;;;;;;;13.73;8.27;;;8.70;99.90;;;8.06;100.00;101836.91;4120517;28;20035;-70
2023/05/20 01:51:05;;;;;;;16.67;7.45;;;8.70;99.90;;;8.06;100.00;101837.75;4135289;28;20022;-70
2023/05/20 01:53:08;;;;;;;11.45;7.25;;;8.70;99.90;;;8.03;100.00;101831.88;4119979;28;20117;-70
2023/05/20 01:55:09;;;;;;;14.68;8.73;;;8.70;99.90;;;8.02;100.00;101840.69;4119097;28;20026;-70
2023/05/20 01:57:10;;;;;;;15.57;8.88;;;8.70;99.90;;;8.00;100.00;101834.72;4120346;28;20026;-70
2023/05/20 01:59:11;;;;;;;16.45;8.77;;;8.70;99.90;;;7.98;100.00;101831.34;4119045;28;20042;-70
2023/05/20 02:01:12;;;;;;;12.27;8.52;;;8.70;99.90;;;7.96;100.00;101833.25;4103116;28;20034;-70
2023/05/20 02:03:13;;;;;;;13.13;8.73;;;8.60;99.90;;;7.95;100.00;101829.78;4135117;28;20097;-70
2023/05/20 02:05:15;;;;;;;11.70;7.90;;;8.60;99.90;;;7.82;100.00;101814.09;4120086;28;20042;-70
2023/05/20 02:07:20;;;;;;;12.18;8.13;;;8.60;99.90;;;7.91;100.00;101823.09;4118843;28;20023;-70
2023/05/20 02:09:20;;;;;;;18.80;9.27;;;8.50;99.90;;;7.82;100.00;101827.22;4120033;28;20372;-70
2023/05/20 02:11:21;;;;;;;21.75;10.95;;;8.50;99.90;;;7.87;100.00;101823.44;4135015;28;20029;-70
2023/05/20 02:13:22;;;;;;;14.93;8.18;;;8.50;99.90;;;7.85;100.00;101820.09;4118782;28;20562;-70
2023/05/20 02:15:23;;;;;;;15.65;9.10;;;8.50;99.90;;;7.82;100.00;101821.16;4120390;28;20026;-70
2023/05/20 02:17:25;;;;;;;15.70;8.18;;;8.50;99.90;;;7.82;100.00;101822.94;4134991;28;20035;-70
2023/05/20 02:19:26;;;;;;;15.38;8.32;;;8.50;99.90;;;7.80;100.00;101817.78;4115441;28;20019;-70
2023/05/20 02:21:27;;;;;;;12.20;8.25;;;8.50;99.90;;;7.80;100.00;101820.41;4102622;28;20027;-70
2023/05/20 02:23:28;;;;;;;13.88;8.85;;;8.50;99.90;;;7.78;100.00;101812.66;4118813;28;20031;-70
2023/05/20 02:25:29;;;;;;;12.82;8.50;;;8.50;99.90;;;7.78;100.00;101811.81;4102759;28;20031;-70
2023/05/20 02:27:30;;;;;;;16.05;8.55;;;8.50;99.90;;;7.79;100.00;101813.50;4118777;28;20026;-70
2023/05/20 02:29:31;;;;;;;14.23;8.20;;;8.50;99.90;;;7.77;100.00;101807.50;4119937;28;20034;-70
2023/05/20 02:31:32;;;;;;;14.43;8.93;;;8.50;99.90;;;7.82;100.00;101814.09;4135246;28;20580;-70
2023/05/20 02:33:33;;;;;;;13.77;9.00;;;8.50;99.90;;;7.79;100.00;101801.19;4120208;28;20031;-70
2023/05/20 02:35:34;;;;;;;20.33;10.60;;;8.50;99.90;;;7.82;100.00;101804.56;4134998;28;20030;-70
2023/05/20 02:37:37;;;;;;;15.90;9.77;;;8.50;99.90;;;7.84;100.00;101800.00;4118349;28;20034;-70
2023/05/20 02:39:38;;;;;;;14.45;8.65;;;8.50;99.90;;;7.78;100.00;101793.41;4134929;28;20113;-70
2023/05/20 02:41:39;;;;;;;18.27;8.05;;;8.50;99.90;;;7.79;100.00;101798.56;4118518;28;20038;-70
2023/05/20 02:43:40;;;;;;;16.58;8.65;;;8.50;99.90;;;7.82;100.00;101804.56;4118591;28;20490;-70
2023/05/20 02:45:41;;;;;;;14.93;8.40;;;8.50;99.90;;;7.78;100.00;101806.56;4134268;28;20046;-70
2023/05/20 02:47:42;;;;;;;15.40;8.25;;;8.50;99.90;;;7.76;100.00;101798.78;4116878;28;20037;-70
2023/05/20 02:49:42;;;;;;;17.55;8.25;;;8.50;99.90;;;7.74;100.00;101802.47;4134817;28;20050;-70
2023/05/20 02:51:43;;;;;;;14.52;8.52;;;8.40;99.90;;;7.73;100.00;101799.03;4102551;28;20027;-70
2023/05/20 02:53:46;;;;;;;15.18;9.63;;;8.40;99.90;;;7.72;100.00;101796.50;4119508;28;20043;-70
2023/05/20 02:55:47;;;;;;;16.33;8.93;;;8.40;99.90;;;7.72;100.00;101799.97;4134954;28;20050;-70
2023/05/20 02:57:48;;;;;;;12.73;8.52;;;8.40;99.90;;;7.71;100.00;101798.28;4119744;28;20372;-70
2023/05/20 02:59:49;;;;;;;17.52;9.77;;;8.40;99.90;;;7.71;100.00;101800.06;4134572;28;20065;-70
2023/05/20 03:01:50;;;;;;;16.40;8.73;;;8.40;99.90;;;7.70;100.00;101804.50;4119584;28;20031;-70
2023/05/20 03:03:51;;;;;;;13.23;8.27;;;8.40;99.90;;;7.67;100.00;101782.88;4120147;28;20029;-70
2023/05/20 03:05:53;;;;;;;14.90;9.07;;;8.40;99.90;;;7.64;100.00;101791.81;4134616;28;20022;-70
2023/05/20 03:07:54;;;;;;;15.25;9.90;;;8.30;99.90;;;7.60;100.00;101785.09;4119420;28;20082;-70
2023/05/20 03:09:55;;;;;;;16.63;9.27;;;8.30;99.90;;;7.61;100.00;101789.41;4118326;28;20110;-70
2023/05/20 03:11:56;;;;;;;15.23;8.32;;;8.30;99.90;;;7.61;100.00;101788.56;4119824;28;20102;-70
2023/05/20 03:13:56;;;;;;;21.13;10.70;;;8.30;99.90;;;7.60;100.00;101784.25;4119853;28;20035;-70
2023/05/20 03:16:00;;;;;;;18.95;9.40;;;8.30;99.90;;;7.60;100.00;101777.22;4119744;28;20113;-70
2023/05/20 03:18:01;;;;;;;15.32;8.75;;;8.30;99.90;;;7.59;100.00;101780.78;4134351;28;20026;-70
2023/05/20 03:20:06;;;;;;;18.02;9.82;;;8.30;99.90;;;7.51;100.00;101772.63;4118420;28;20019;-70
2023/05/20 03:22:07;;;;;;;17.95;9.68;;;8.30;99.90;;;7.58;100.00;101780.91;4119809;28;20027;-70
2023/05/20 03:24:09;;;;;;;15.43;9.38;;;8.30;99.90;;;7.60;100.00;101779.84;4134264;28;20027;-70
2023/05/20 03:26:10;;;;;;;18.42;10.27;;;8.30;99.90;;;7.60;100.00;101779.84;4134233;28;20030;-70
2023/05/20 03:28:11;;;;;;;17.00;10.50;;;8.30;99.90;;;7.62;100.00;101777.94;4119453;28;20033;-70
2023/05/20 03:30:12;;;;;;;16.13;10.13;;;8.30;99.90;;;7.63;100.00;101770.91;4119680;28;20031;-70
2023/05/20 03:32:13;;;;;;;19.45;10.65;;;8.30;99.90;;;7.59;100.00;101769.44;4119523;28;20035;-70
2023/05/20 03:34:14;;;;;;;16.02;9.65;;;8.30;99.90;;;7.63;100.00;101770.91;4104900;28;20043;-70
2023/05/20 03:36:15;;;;;;;18.92;9.82;;;8.30;99.90;;;7.61;100.00;101772.81;4137148;28;20033;-70
2023/05/20 03:38:16;;;;;;;16.67;9.57;;;8.30;99.90;;;7.63;100.00;101771.75;4122133;28;20027;-70
2023/05/20 03:40:17;;;;;;;16.77;10.43;;;8.30;99.90;;;7.63;100.00;101770.91;4122496;28;20030;-70
2023/05/20 03:42:18;;;;;;;17.00;10.27;;;8.30;99.90;;;7.67;100.00;101767.13;4122089;28;20034;-70
2023/05/20 03:44:19;;;;;;;17.23;10.43;;;8.30;99.90;;;7.67;100.00;101767.97;4122402;28;20074;-70
2023/05/20 03:46:20;;;;;;;15.57;9.35;;;8.30;99.90;;;7.68;100.00;101761.75;4120971;28;20061;-70
2023/05/20 03:48:37;;;;;;;21.60;10.38;;;8.30;99.90;;;7.68;100.00;101767.00;4233014;27;20385;-70
2023/05/20 03:50:38;;;;;;;22.35;10.20;;;8.40;99.90;;;7.70;100.00;101762.47;4216362;28;20053;-70
2023/05/20 03:52:39;;;;;;;24.65;11.05;;;8.40;99.90;;;7.72;100.00;101764.97;4215693;28;20024;-70
2023/05/20 03:54:40;;;;;;;23.80;11.40;;;8.40;99.90;;;7.59;100.00;101736.16;4216260;28;20020;-70
2023/05/20 03:56:41;;;;;;;20.73;12.63;;;8.40;99.90;;;7.74;100.00;101756.03;4214851;28;20028;-70
2023/05/20 03:58:42;;;;;;;23.60;11.07;;;8.40;99.90;;;7.77;100.00;101760.22;4202750;28;20027;-70
2023/05/20 04:00:43;;;;;;;21.60;10.77;;;8.40;99.90;;;7.69;100.00;101755.53;4214916;28;20046;-70
2023/05/20 04:02:44;;;;;;;20.27;10.10;;;8.40;99.90;;;7.77;100.00;101753.19;4214974;28;20051;-70
2023/05/20 04:04:45;;;;;;;18.67;10.80;;;8.40;99.90;;;7.77;100.00;101763.69;4216059;28;20493;-70
2023/05/20 04:06:46;;;;;;;20.02;10.55;;;8.40;99.90;;;7.76;100.00;101766.44;4214801;28;20063;-70
2023/05/20 04:08:47;;;;;;;22.40;12.30;;;8.50;99.90;;;7.71;100.00;101758.88;4215860;28;20028;-70
2023/05/20 04:10:48;;;;;;;22.10;11.15;;;8.50;99.90;;;7.69;100.00;101755.53;4248592;28;20125;-70
2023/05/20 04:12:49;;;;;;;23.05;11.00;;;8.50;99.90;;;7.76;100.00;101762.00;4216108;28;20024;-70
2023/05/20 04:14:51;;;;;;;21.42;11.10;;;8.40;99.90;;;7.75;100.00;101754.25;4214539;28;20107;-70
2023/05/20 04:16:52;;;;;;;25.13;11.75;;;8.40;99.90;;;7.69;100.00;101755.53;4203600;28;20024;-70
2023/05/20 04:18:53;;;;;;;21.30;11.48;;;8.40;99.90;;;7.71;100.00;101758.88;4215922;28;20020;-70
2023/05/20 04:21:00;;;;;;;19.92;13.20;;;8.40;99.90;;;7.70;100.00;101756.38;4215824;28;20028;-70
2023/05/20 04:23:01;;;;;;;16.98;10.25;;;8.40;99.90;;;7.71;100.00;101755.41;4213555;28;20020;-71
2023/05/20 04:25:04;;;;;;;19.85;10.80;;;8.40;99.90;;;7.67;100.00;101757.47;4204722;28;20025;-71
2023/05/20 04:27:04;;;;;;;22.50;10.98;;;8.40;99.90;;;7.64;100.00;101752.44;4215660;28;20020;-70
2023/05/20 04:29:05;;;;;;;22.63;12.48;;;8.30;99.90;;;7.64;100.00;101747.19;4214549;28;20498;-71
2023/05/20 04:31:07;;;;;;;22.42;13.07;;;8.30;99.90;;;7.62;100.00;101749.06;4214263;28;20031;-71
2023/05/20 04:33:08;;;;;;;22.73;11.20;;;8.30;99.90;;;7.64;100.00;101759.47;4214565;28;20025;-71
2023/05/20 04:35:12;;;;;;;24.48;12.05;;;8.30;99.90;;;7.60;100.00;101750.97;4207426;28;20024;-71
2023/05/20 04:37:13;;;;;;;;;;;8.30;99.90;;;7.59;100.00;101754.53;4214685;28;20173;-71
2023/05/20 04:39:14;;;;;;;21.50;11.63;;;8.30;99.90;;;7.63;100.00;101749.91;4197130;28;19908;-71
2023/05/20 04:41:15;;;;;;;21.38;11.52;;;8.30;99.90;;;7.63;100.00;101755.16;4206060;28;20024;-71
2023/05/20 04:43:16;;;;;;;22.80;10.90;;;8.30;99.90;;;7.65;100.00;101761.97;4214298;28;20032;-71
2023/05/20 04:45:17;;;;;;;22.60;13.15;;;8.30;99.90;;;7.63;100.00;101749.91;4210520;28;20391;-71
2023/05/20 04:47:18;;;;;;;22.77;13.85;;;8.30;99.90;;;7.65;100.00;101754.09;4215118;28;20051;-71
2023/05/20 04:49:18;;;;;;;22.85;12.90;;;8.30;99.90;;;7.68;100.00;101747.75;4215309;28;20098;-71
2023/05/20 04:51:19;;;;;;;24.73;11.02;;;8.40;99.90;;;7.72;100.00;101752.69;4214919;28;20025;-71
2023/05/20 04:53:20;;;;;;;23.50;12.55;;;8.40;99.90;;;7.74;100.00;101747.31;4213699;28;20024;-71
2023/05/20 04:55:23;;;;;;;26.02;12.30;;;8.40;99.90;;;7.76;100.00;101751.50;4215192;28;20030;-71
2023/05/20 04:57:24;;;;;;;25.52;12.57;;;8.40;99.90;;;7.74;100.00;101742.06;4213822;28;20031;-70
2023/05/20 04:59:25;;;;;;;24.27;12.07;;;8.40;99.90;;;7.78;100.00;101747.00;4197707;28;20028;-70
2023/05/20 05:01:26;;;;;;;25.85;13.50;;;8.40;99.90;;;7.76;100.00;101741.00;4197607;28;20032;-71
2023/05/20 05:03:27;;;;;;;23.23;12.43;;;8.40;99.90;;;7.84;100.00;101752.72;4202738;28;20062;-71
2023/05/20 05:05:28;;;;;;;21.48;12.45;;;8.40;99.90;;;7.86;100.00;101745.56;4203933;28;20096;-71
2023/05/20 05:07:30;;;;;;;23.33;13.15;;;8.50;99.90;;;7.75;100.00;101728.00;4194384;28;20033;-71
2023/05/20 05:09:30;;;;;;;23.48;12.75;;;8.50;99.90;;;7.84;100.00;101743.06;4224674;28;20099;-71
2023/05/20 05:11:31;;;;;;;26.75;14.10;;;8.60;99.90;;;7.91;100.00;101743.47;4201039;28;20455;-71
2023/05/20 05:13:32;;;;;;;33.35;13.43;;;8.60;99.90;;;7.97;100.00;101749.09;4202747;28;20028;-71
2023/05/20 05:15:33;;;;;;;24.63;12.10;;;8.60;99.90;;;8.01;100.00;101747.06;4202904;28;20116;-71
2023/05/20 05:17:34;;;;;;;22.90;12.63;;;8.70;99.90;;;8.06;100.00;101747.56;4202731;28;20070;-70
2023/05/20 05:19:35;;;;;;;23.55;12.85;;;8.70;99.90;;;8.03;100.00;101747.78;4203812;28;20031;-71
2023/05/20 05:21:36;;;;;;;22.30;12.82;;;8.70;99.90;;;8.12;100.00;101753.16;4203839;28;20035;-71
2023/05/20 05:23:37;;;;;;;22.00;11.45;;;8.70;99.90;;;8.17;100.00;101758.09;4202458;28;20095;-71
2023/05/20 05:25:37;;;;;;;26.10;12.77;;;8.70;99.90;;;8.17;100.00;101740.53;4198114;28;20032;-71
2023/05/20 05:27:39;;;;;;;24.52;12.65;;;8.80;99.90;;;8.25;100.00;101748.66;4235257;28;20042;-71
2023/05/20 05:29:40;;;;;;;24.55;14.32;;;8.80;99.90;;;8.30;100.00;101751.00;4190021;28;20049;-71
2023/05/20 05:31:41;;;;;;;23.25;12.50;;;8.90;99.90;;;8.36;100.00;101747.06;4202284;28;20029;-71
2023/05/20 05:33:42;;;;;;;27.25;12.10;;;8.90;99.90;;;8.41;100.00;101737.88;4203607;28;20066;-70
2023/05/20 05:35:43;;;;;;;22.80;12.18;;;9.00;99.90;;;8.46;100.00;101740.13;4185777;28;20029;-71
2023/05/20 05:37:44;;;;;;;26.45;13.18;;;9.00;99.90;;;8.52;100.00;101743.13;4202054;28;20017;-70
2023/05/20 05:39:45;;;;;;;23.70;12.80;;;9.10;99.90;;;8.56;100.00;101741.94;4194057;28;20082;-70
2023/05/20 05:41:46;;;;;;;19.48;11.05;;;9.20;99.90;;;8.67;100.00;101749.00;4201848;28;20033;-71
2023/05/20 05:43:47;;;;;;;23.45;13.07;;;9.20;99.90;;;8.72;100.00;101754.75;4203144;28;20089;-70
2023/05/20 05:45:48;;;;;;;21.80;12.38;;;9.30;99.90;;;8.73;100.00;101744.09;4202346;28;20025;-71
2023/05/20 05:47:48;;;;;;;21.83;12.30;;;9.30;99.90;;;8.83;100.00;101747.69;4201329;28;20573;-71
2023/05/20 05:49:50;;;;;;;23.65;11.52;;;9.40;99.90;;;8.87;100.00;101737.75;4195491;28;20029;-71
2023/05/20 05:51:51;;;;;;;24.92;12.70;;;9.50;99.90;;;9.00;100.00;101740.25;4203251;28;20024;-70
2023/05/20 05:53:52;;;;;;;20.38;11.77;;;9.60;99.90;;;9.06;100.00;101745.03;4201891;28;20028;-70
2023/05/20 05:55:53;;;;;;;23.08;12.60;;;9.60;99.90;;;9.05;100.00;101730.22;4203457;28;20024;-71
2023/05/20 05:57:54;;;;;;;24.83;13.68;;;9.70;99.90;;;9.15;100.00;101742.50;4201895;28;20539;-71
2023/05/20 05:59:55;;;;;;;26.92;11.65;;;9.70;99.90;;;9.21;100.00;101744.66;4214344;28;20542;-71
2023/05/20 06:01:56;;;;;;;28.25;12.20;;;9.80;99.90;;;9.31;100.00;101736.84;4202899;28;20037;-71
2023/05/20 06:03:56;;;;;;;21.58;12.90;;;9.90;99.90;;;9.43;100.00;101749.03;4201998;28;20119;-71
2023/05/20 06:05:57;;;;;;;24.95;11.88;;;9.90;99.90;;;9.53;100.00;101739.41;4200178;28;20021;-71
2023/05/20 06:07:58;;;;;;;20.38;10.75;;;10.00;99.90;;;9.58;100.00;101729.34;4202631;28;20068;-70
2023/05/20 06:09:59;;;;;;;19.73;12.80;;;10.10;99.90;;;9.69;100.00;101739.84;4201380;28;20024;-71
2023/05/20 06:12:01;;;;;;;21.92;10.70;;;10.20;99.90;;;9.68;100.00;101722.34;4190390;28;20039;-71
2023/05/20 06:14:02;;;;;;;22.17;11.55;;;10.20;99.90;;;9.78;100.00;101728.53;4193888;28;20021;-71
2023/05/20 06:16:03;;;;;;;19.60;10.60;;;10.30;99.90;;;9.92;100.00;101732.66;4197225;28;20119;-71
2023/05/20 06:18:04;;;;;;;25.08;11.63;;;10.40;99.90;;;9.92;100.00;101730.84;4202655;28;20028;-71
2023/05/20 06:20:06;;;;;;;29.20;12.45;;;10.50;99.90;;;9.95;100.00;101735.88;4202808;28;20557;-71
2023/05/20 06:22:07;;;;;;;24.88;11.38;;;10.50;99.90;;;10.08;100.00;101735.69;4201568;28;20031;-71
2023/05/20 06:24:08;;;;;;;22.15;11.48;;;10.60;99.90;;;10.09;100.00;101736.53;4201276;28;20028;-71
2023/05/20 06:26:09;;;;;;;22.42;11.75;;;10.60;99.90;;;10.29;100.00;101722.53;4202569;28;20028;-71
2023/05/20 06:28:11;;;;;;;20.77;11.52;;;10.70;99.90;;;10.47;100.00;101732.34;4201406;28;20111;-71
2023/05/20 06:30:12;;;;;;;23.80;10.27;;;10.80;99.90;;;10.56;100.00;101736.00;4202803;28;20067;-71
2023/05/20 06:32:13;;;;;;;23.92;12.20;;;10.90;99.90;;;10.56;100.00;101730.72;4202587;28;20034;-71
2023/05/20 06:34:14;;;;;;;22.50;10.90;;;11.00;99.90;;;10.71;100.00;101728.56;4202527;28;20028;-71
2023/05/20 06:36:16;;;;;;;19.73;12.10;;;11.00;99.90;;;10.67;100.00;101727.16;4202562;28;20100;-71
2023/05/20 06:38:18;;;;;;;23.63;11.73;;;11.10;99.90;;;10.73;100.00;101740.66;4201207;28;20397;-70
2023/05/20 06:40:18;;;;;;;24.88;11.43;;;11.10;99.90;;;10.62;100.00;101722.28;4202515;28;20084;-71
2023/05/20 06:42:20;;;;;;;21.00;11.95;;;11.20;99.90;;;10.61;100.00;101725.03;4201022;28;20016;-70
2023/05/20 06:44:21;;;;;;;19.15;10.63;;;11.20;99.90;;;10.68;100.00;101726.19;4201097;28;20442;-71
2023/05/20 06:46:22;;;;;;;20.83;11.15;;;11.20;99.90;;;10.63;100.00;101721.34;4193503;28;20029;-71
2023/05/20 06:48:22;;;;;;;16.23;10.20;;;11.20;99.90;;;10.72;100.00;101725.78;4200841;28;20498;-70
2023/05/20 06:50:23;;;;;;;20.80;11.60;;;11.20;99.90;;;10.68;100.00;101719.13;4199663;28;20025;-71
2023/05/20 06:52:24;;;;;;;18.48;11.40;;;11.30;99.90;;;10.75;100.00;101719.44;4202141;28;20025;-71
2023/05/20 06:54:25;;;;;;;21.27;11.57;;;11.30;99.90;;;10.80;100.00;101717.22;4202333;28;20021;-70
2023/05/20 06:56:26;;;;;;;28.77;12.80;;;11.40;99.90;;;10.90;100.00;101718.91;4200930;28;20657;-71
2023/05/20 06:58:28;;;;;;;20.00;10.35;;;11.40;99.90;;;10.98;100.00;101724.38;4184230;28;20096;-70
2023/05/20 07:00:28;;;;;;;25.92;12.10;;;11.50;99.90;;;11.01;100.00;101718.81;4201110;28;20031;-70
2023/05/20 07:02:30;;;;;;;24.90;12.48;;;11.50;99.90;;;11.18;100.00;101721.75;4202224;28;20028;-70
2023/05/20 07:04:31;;;;;;;20.73;10.77;;;11.60;99.90;;;11.29;100.00;101713.75;4200912;28;20028;-70
2023/05/20 07:06:31;;;;;;;19.38;10.85;;;11.80;99.90;;;11.52;100.00;101718.63;4200653;28;20063;-70
2023/05/20 07:08:32;;;;;;;21.80;11.05;;;11.90;99.90;;;11.62;100.00;101711.53;4201804;28;20475;-71
2023/05/20 07:10:33;;;;;;;17.30;10.45;;;12.00;99.90;;;11.77;100.00;101708.50;4202147;28;20052;-70
2023/05/20 07:12:34;;;;;;;22.70;10.57;;;12.20;99.90;;;11.87;100.00;101704.88;4200945;28;20030;-71
2023/05/20 07:14:35;;;;;;;20.77;10.35;;;12.30;99.90;;;11.95;100.00;101710.28;4197812;28;20047;-71
2023/05/20 07:16:36;;;;;;;23.20;11.77;;;12.40;99.90;;;12.03;100.00;101691.91;4187673;28;20028;-71
2023/05/20 07:18:37;;;;;;;19.63;10.02;;;12.50;99.90;;;12.15;100.00;101708.44;4201996;28;20430;-71
2023/05/20 07:20:38;;;;;;;15.73;10.38;;;12.60;99.90;;;12.34;100.00;101711.03;4201105;28;20032;-70
2023/05/20 07:22:39;;;;;;;15.48;9.32;;;12.80;99.90;;;12.52;100.00;101705.81;4233853;28;20024;-71
2023/05/20 07:24:40;;;;;;;21.33;9.73;;;12.90;99.90;;;12.67;100.00;101709.66;4201953;28;20043;-71
2023/05/20 07:26:40;;;;;;;18.63;9.98;;;13.10;99.90;;;12.52;100.00;101705.81;4201971;28;20021;-71
2023/05/20 07:28:42;;;;;;;19.90;9.35;;;13.10;99.90;;;12.54;100.00;101709.16;4200669;28;20055;-70
2023/05/20 07:30:49;;;;;;;14.80;10.05;;;13.20;99.90;;;12.71;100.00;101711.03;4196387;28;20024;-71
2023/05/20 07:32:49;;;;;;;20.08;10.07;;;13.30;99.90;;;12.67;100.00;101704.38;4201552;28;20068;-71
2023/05/20 07:34:50;;;;;;;20.13;10.13;;;13.30;99.90;;;12.70;100.00;101702.25;4201759;28;20476;-71
2023/05/20 07:36:52;;;;;;;18.40;10.07;;;13.40;99.90;;;12.53;100.00;101686.31;4200640;28;20488;-71
2023/05/20 07:38:53;;;;;;;23.73;10.15;;;13.40;99.90;;;12.65;100.00;101690.44;4197704;28;20038;-70
2023/05/20 07:40:54;;;;;;;15.77;9.60;;;13.40;99.90;;;12.93;100.00;101689.44;4200464;28;20508;-71
2023/05/20 07:42:55;;;;;;;17.35;8.88;;;13.50;99.90;;;13.20;100.00;101692.09;4195310;28;20033;-71
2023/05/20 07:44:56;;;;;;;19.73;9.30;;;13.60;99.90;;;13.22;100.00;101684.88;4200369;28;20050;-71
2023/05/20 07:46:57;;;;;;;14.52;8.38;;;13.80;99.90;;;13.29;100.00;101679.78;4197294;28;20045;-70
2023/05/20 07:48:58;;;;;;;14.98;8.65;;;13.90;99.90;;;13.44;100.00;101672.97;4201572;28;20036;-71
2023/05/20 07:50:59;;;;;;;16.33;9.35;;;14.00;99.90;;;13.58;100.00;101674.25;4201898;28;20031;-70
2023/05/20 07:52:59;;;;;;;21.73;8.95;;;14.10;99.90;;;13.70;100.00;101678.34;4201469;28;20017;-70
2023/05/20 07:55:00;;;;;;;15.45;9.60;;;14.20;99.90;;;13.65;100.00;101664.72;4200552;28;20086;-71
2023/05/20 07:57:01;;;;;;;14.45;9.13;;;14.30;99.90;;;13.75;100.00;101673.41;4200244;28;20024;-71
2023/05/20 07:59:02;;;;;;;22.67;10.15;;;14.30;99.90;;;13.78;100.00;101667.78;4200267;28;20020;-71
2023/05/20 08:01:03;;;;;;;20.00;10.15;;;14.40;99.90;;;13.89;100.00;101672.84;4201654;28;20547;-70
2023/05/20 08:03:06;;;;;;;17.17;9.27;;;14.50;99.90;;;13.89;100.00;101667.53;4200456;28;20050;-70
2023/05/20 08:05:08;;;;;;;11.23;7.72;;;14.50;99.90;;;13.98;100.00;101661.28;4199958;28;20021;-70
2023/05/20 08:07:09;;;;;;;18.02;8.82;;;14.60;99.90;;;14.27;100.00;101672.44;4201654;28;20102;-71
2023/05/20 08:09:10;;;;;;;14.68;8.70;;;14.70;99.90;;;14.54;99.73;101663.50;4201376;28;20075;-71
2023/05/20 08:11:10;;;;;;;23.13;9.43;;;14.90;99.90;;;14.75;97.97;101665.72;4200080;28;20090;-71
2023/05/20 08:13:11;;;;;;;16.90;8.85;;;15.10;99.90;;;14.85;97.78;101661.09;4201460;28;20035;-71
2023/05/20 08:15:12;;;;;;;13.15;7.90;;;15.20;99.90;;;15.04;97.57;101660.00;4201646;28;20074;-71
2023/05/20 08:17:13;;;;;;;12.43;7.95;;;15.40;99.90;;;14.93;94.11;101661.16;4200247;28;20028;-71
2023/05/20 08:19:14;;;;;;;17.05;8.85;;;15.40;99.90;;;14.95;94.44;101656.50;4200227;28;20474;-71
2023/05/20 08:21:15;;;;;;;16.00;9.25;;;15.50;99.90;;;14.87;93.98;101670.56;4201340;28;20032;-71